Time;durP1;ratioP1;P1;durP2;ratioP2;P2;SDS_P1;SDS_P2;PMS_P1;PMS_P2;Temp;Humidity;BMP_temperature;BMP_pressure;BME280_temperature;BME280_humidity;BME280_pressure;Samples;Min_cycle;Max_cycle;Signal;HPM_P1;HPM_P2
2022/01/16 00:04:06;;;;;;;44.70;9.50;;;;;;;4.83;44.92;101794.16;5030504;28;20065;-68
2022/01/16 00:06:34;;;;;;;38.08;8.38;;;;;;;4.50;45.19;101787.38;5031873;28;20045;-68
2022/01/16 00:09:01;;;;;;;49.30;11.32;;;;;;;4.73;45.21;101785.94;5031480;28;20049;-68
2022/01/16 00:11:28;;;;;;;38.78;8.00;;;;;;;4.48;45.33;101783.09;5014787;28;20077;-68
2022/01/16 00:13:55;;;;;;;40.05;8.48;;;;;;;4.56;45.74;101776.38;5010677;28;20076;-68
2022/01/16 00:16:22;;;;;;;39.08;7.20;;;;;;;4.82;45.06;101784.50;5010948;28;20133;-69
2022/01/16 00:18:49;;;;;;;49.15;8.75;;;;;;;5.07;44.11;101773.16;5009635;28;20049;-69
2022/01/16 00:21:21;;;;;;;46.42;9.32;;;;;;;4.65;45.53;101782.03;5011396;28;20044;-69
2022/01/16 00:23:49;;;;;;;;;;;;;;;4.42;45.70;101776.38;5011046;28;20069;-70
2022/01/16 00:26:17;;;;;;;39.80;7.65;;;;;;;5.14;44.36;101769.13;5011812;28;19921;-70
2022/01/16 00:28:43;;;;;;;31.65;7.95;;;;;;;4.51;45.79;101782.91;5011884;28;20132;-70
2022/01/16 00:31:10;;;;;;;44.72;9.65;;;;;;;4.61;45.25;101785.84;5011642;28;20121;-70
2022/01/16 00:33:42;;;;;;;41.03;8.48;;;;;;;5.12;44.45;101781.69;5012317;28;20125;-70
2022/01/16 00:36:10;;;;;;;34.90;7.82;;;;;;;5.39;43.96;101800.34;5010855;28;20042;-70
2022/01/16 00:38:43;;;;;;;21.73;7.60;;;;;;;4.58;44.82;101806.34;5009777;28;20045;-70
2022/01/16 00:41:11;;;;;;;36.28;8.13;;;;;;;4.81;45.06;101801.41;5018278;28;20538;-70
2022/01/16 00:43:37;;;;;;;31.98;8.05;;;;;;;3.60;47.59;101798.91;5011658;28;20457;-70
2022/01/16 00:46:03;;;;;;;44.40;9.05;;;;;;;4.92;45.44;101780.31;5016024;28;20049;-70
2022/01/16 00:48:30;;;;;;;29.83;7.85;;;;;;;4.00;47.16;101769.16;5025972;28;20049;-71
2022/01/16 00:50:57;;;;;;;30.75;8.50;;;;;;;4.46;46.20;101750.47;5012633;28;20397;-70
2022/01/16 00:53:23;;;;;;;30.98;7.63;;;;;;;4.59;45.46;101735.47;5013462;28;20126;-70
2022/01/16 00:55:50;;;;;;;33.70;8.10;;;;;;;4.92;44.93;101747.53;5030516;28;20120;-70
2022/01/16 00:58:16;;;;;;;45.65;8.82;;;;;;;4.86;44.95;101750.59;5030836;28;20501;-70
2022/01/16 01:00:43;;;;;;;35.08;8.93;;;;;;;4.45;46.14;101760.25;5032836;28;20128;-70
2022/01/16 01:03:11;;;;;;;31.52;7.95;;;;;;;4.07;47.39;101746.59;5020719;28;20081;-70
2022/01/16 01:05:37;;;;;;;32.47;7.90;;;;;;;4.62;45.59;101771.59;5020368;28;20114;-69
2022/01/16 01:08:04;;;;;;;44.08;7.70;;;;;;;4.71;45.78;101760.41;5014736;28;20040;-70
2022/01/16 01:10:34;;;;;;;42.35;9.30;;;;;;;4.48;45.74;101767.16;5013923;28;20080;-70
2022/01/16 01:13:21;;;;;;;35.83;7.85;;;;;;;4.65;45.20;101750.16;5014014;28;20068;-70
2022/01/16 01:15:52;;;;;;;48.65;8.32;;;;;;;4.57;45.40;101750.63;5013739;28;20126;-68
2022/01/16 01:18:20;;;;;;;45.63;9.73;;;;;;;5.14;44.61;101725.72;5013533;28;20056;-68
2022/01/16 01:20:49;;;;;;;36.45;8.55;;;;;;;4.89;45.20;101726.47;5032264;28;20128;-68
2022/01/16 01:23:15;;;;;;;31.63;8.35;;;;;;;4.47;46.21;101718.47;5033907;28;20053;-70
2022/01/16 01:25:42;;;;;;;36.53;8.75;;;;;;;5.21;44.26;101722.59;5032936;28;20041;-70
2022/01/16 01:28:09;;;;;;;37.13;8.85;;;;;;;4.34;46.59;101715.69;5034445;28;20072;-70
2022/01/16 01:30:38;;;;;;;34.72;8.82;;;;;;;4.77;45.74;101728.97;5034609;28;20048;-70
2022/01/16 01:33:05;;;;;;;37.10;8.50;;;;;;;4.35;46.79;101727.19;5033101;28;20045;-69
2022/01/16 01:35:38;;;;;;;39.88;8.82;;;;;;;5.14;44.74;101739.88;5033490;28;20087;-69
2022/01/16 01:38:06;;;;;;;45.20;8.45;;;;;;;3.96;47.28;101706.56;5033702;28;20049;-69
2022/01/16 01:40:34;;;;;;;32.85;7.13;;;;;;;3.07;49.17;101715.31;5033731;28;20592;-69
2022/01/16 01:51:32;;;;;;;38.72;8.30;;;;;;;3.43;48.48;101593.91;5033251;28;20045;-69
2022/01/16 01:54:00;;;;;;;28.52;8.55;;;;;;;3.89;47.66;101596.38;5033798;28;20186;-69
2022/01/16 01:56:27;;;;;;;38.90;7.57;;;;;;;3.41;48.99;101579.88;5033496;28;20551;-69
2022/01/16 01:58:58;;;;;;;34.47;9.25;;;;;;;3.96;47.83;101601.22;5033292;28;20132;-69
2022/01/16 02:01:26;;;;;;;34.47;7.88;;;;;;;3.73;48.76;101617.72;5033568;28;20045;-70
2022/01/16 02:03:54;;;;;;;49.30;9.15;;;;;;;3.75;47.65;101624.63;5032001;28;20042;-69
2022/01/16 02:09:49;;;;;;;33.10;7.95;;;;;;;3.61;48.54;101632.59;5033177;28;20393;-70
2022/01/16 02:12:15;;;;;;;40.63;7.95;;;;;;;3.46;49.10;101625.56;5032050;28;20049;-70
2022/01/16 02:15:27;;;;;;;33.72;8.60;;;;;;;3.44;49.16;101622.13;5033177;28;20061;-70
2022/01/16 02:31:21;;;;;;;27.30;7.28;;;;;;;3.25;49.50;101628.53;5012533;28;20406;-68
2022/01/16 02:34:31;;;;;;;37.90;7.93;;;;;;;3.14;50.20;101630.97;5012416;28;20421;-68
2022/01/16 02:36:51;;;;;;;27.43;5.77;;;;;;;3.02;49.67;101642.28;5031012;28;20135;-68
2022/01/16 02:39:17;;;;;;;40.97;7.93;;;;;;;3.53;48.94;101634.84;5031294;28;20496;-68
2022/01/16 02:41:45;;;;;;;42.70;10.10;;;;;;;3.42;48.85;101637.31;5032438;28;20056;-68
2022/01/16 02:44:20;;;;;;;30.80;7.80;;;;;;;3.22;49.86;101639.31;5032092;28;20075;-68
2022/01/16 02:46:48;;;;;;;41.20;8.88;;;;;;;3.60;48.97;101638.84;5031447;28;20044;-68
2022/01/16 02:49:19;;;;;;;42.92;8.57;;;;;;;3.66;48.27;101627.88;5031804;28;20137;-68
2022/01/16 02:51:45;;;;;;;25.27;6.05;;;;;;;3.07;49.86;101630.47;5012124;28;20052;-68
2022/01/16 02:54:11;;;;;;;43.03;9.40;;;;;;;2.88;50.76;101624.53;5012499;28;20050;-68
2022/01/16 02:56:39;;;;;;;41.13;8.60;;;;;;;2.66;51.15;101609.84;5012210;28;20054;-70
2022/01/16 02:59:09;;;;;;;54.55;9.75;;;;;;;2.35;51.70;101607.22;5011839;28;20073;-69
2022/01/16 03:01:35;;;;;;;36.53;9.02;;;;;;;2.13;52.54;101604.88;5012316;28;20073;-68
2022/01/16 03:04:02;;;;;;;45.92;10.07;;;;;;;2.60;51.40;101604.06;5012435;28;20053;-68
2022/01/16 03:06:29;;;;;;;33.95;8.40;;;;;;;2.87;49.85;101602.47;5011736;28;20414;-68
2022/01/16 03:08:55;;;;;;;39.75;8.57;;;;;;;2.97;49.79;101596.66;5013408;28;20110;-68
2022/01/16 03:13:49;;;;;;;40.17;8.43;;;;;;;2.79;50.84;101567.63;5011938;28;20058;-69
2022/01/16 03:16:18;;;;;;;46.92;8.70;;;;;;;3.15;49.88;101564.59;5012276;28;20453;-68
2022/01/16 03:24:17;;;;;;;46.30;8.07;;;;;;;1.87;53.02;101548.94;5011917;28;20442;-68
2022/01/16 03:26:43;;;;;;;36.00;7.88;;;;;;;2.46;51.61;101532.47;5019921;28;20136;-69
2022/01/16 03:29:10;;;;;;;43.85;8.68;;;;;;;1.80;52.62;101538.75;5031945;28;20065;-70
2022/01/16 03:31:36;;;;;;;32.47;7.10;;;;;;;2.18;52.55;101544.63;5031516;28;20478;-69
2022/01/16 03:34:03;;;;;;;42.20;8.82;;;;;;;2.28;51.81;101532.56;5030806;28;20049;-69
2022/01/16 03:36:30;;;;;;;35.85;7.72;;;;;;;2.25;51.99;101524.81;5032271;28;20080;-70
2022/01/16 03:38:56;;;;;;;50.50;7.45;;;;;;;2.24;52.07;101512.50;5031852;28;20045;-69
2022/01/16 03:41:27;;;;;;;40.90;7.38;;;;;;;2.49;51.69;101504.00;5032333;28;20045;-68
2022/01/16 03:43:58;;;;;;;45.88;9.23;;;;;;;2.60;50.94;101498.09;5031569;28;20045;-69
2022/01/16 03:46:29;;;;;;;38.17;7.20;;;;;;;2.67;51.25;101483.53;5031397;28;20053;-68
2022/01/16 03:48:56;;;;;;;39.30;8.27;;;;;;;1.71;53.25;101482.78;5030716;28;20402;-68
2022/01/16 03:51:22;;;;;;;43.00;7.97;;;;;;;2.08;51.92;101479.91;5030600;28;20052;-68
2022/01/16 03:53:50;;;;;;;44.08;7.88;;;;;;;2.26;51.96;101484.13;5026731;28;20549;-68
2022/01/16 03:56:16;;;;;;;43.88;7.35;;;;;;;1.79;53.45;101489.44;5031192;28;20054;-67
2022/01/16 03:58:43;;;;;;;32.83;7.05;;;;;;;2.05;52.48;101474.78;5030473;28;20461;-68
2022/01/16 04:01:09;;;;;;;50.47;8.85;;;;;;;1.76;52.91;101484.31;5031386;28;20529;-69
2022/01/16 04:03:36;;;;;;;38.40;7.38;;;;;;;2.19;51.97;101473.03;5031187;28;20059;-68
2022/01/16 04:06:03;;;;;;;34.80;7.65;;;;;;;1.69;53.39;101478.50;5030387;28;20050;-68
2022/01/16 04:08:29;;;;;;;41.10;7.40;;;;;;;1.81;52.58;101467.22;5030886;28;20140;-69
2022/01/16 04:10:55;;;;;;;46.50;7.35;;;;;;;1.79;52.81;101458.53;5032037;28;20144;-69
2022/01/16 04:13:22;;;;;;;35.72;7.28;;;;;;;1.41;53.67;101448.28;5030624;28;20537;-69
2022/01/16 04:15:49;;;;;;;32.17;7.72;;;;;;;1.76;53.32;101448.13;5031375;28;20474;-69
2022/01/16 04:18:15;;;;;;;37.25;6.65;;;;;;;0.98;55.15;101450.56;5030337;28;20124;-67
2022/01/16 04:20:42;;;;;;;43.72;7.90;;;;;;;1.76;53.18;101429.63;5030041;28;20417;-69
2022/01/16 04:23:11;;;;;;;38.25;8.13;;;;;;;1.38;53.89;101429.94;5031343;28;20111;-69
2022/01/16 04:25:38;;;;;;;47.83;7.15;;;;;;;1.97;52.94;101422.28;5030169;28;20453;-69
2022/01/16 04:28:05;;;;;;;48.78;6.75;;;;;;;1.61;53.48;101415.47;5011217;28;20513;-69
2022/01/16 04:30:31;;;;;;;39.38;7.00;;;;;;;1.55;53.79;101422.88;5011141;28;20148;-67
2022/01/16 04:32:58;;;;;;;41.55;7.22;;;;;;;1.39;54.39;101420.22;5012023;28;20046;-67
2022/01/16 04:35:25;;;;;;;46.10;7.90;;;;;;;1.62;53.18;101418.97;5013735;28;20045;-67
2022/01/16 04:37:51;;;;;;;49.40;7.25;;;;;;;1.26;54.40;101417.38;5014324;28;20045;-67
2022/01/16 04:40:40;;;;;;;45.05;7.78;;;;;;;1.92;52.55;101409.31;5015098;28;20492;-69
2022/01/16 04:45:51;;;;;;;42.78;8.02;;;;;;;1.63;53.55;101403.00;5035091;28;20041;-68
2022/01/16 04:48:18;;;;;;;42.85;8.27;;;;;;;2.08;52.40;101411.94;5033410;28;20103;-67
2022/01/16 04:50:44;;;;;;;50.35;8.13;;;;;;;1.96;52.76;101404.72;5034690;28;20136;-67
2022/01/16 04:53:10;;;;;;;55.47;8.55;;;;;;;1.66;53.08;101396.69;5033885;28;20061;-68
2022/01/16 04:55:37;;;;;;;43.03;6.85;;;;;;;1.65;53.02;101387.91;5034379;28;20109;-68
2022/01/16 04:58:03;;;;;;;33.28;6.90;;;;;;;1.47;53.80;101383.63;5034065;28;20151;-67
2022/01/16 05:00:30;;;;;;;36.83;7.13;;;;;;;1.17;54.44;101373.81;5034202;28;20079;-69
2022/01/16 05:02:56;;;;;;;44.38;7.63;;;;;;;1.38;54.30;101385.00;5035200;28;20068;-69
2022/01/16 05:05:23;;;;;;;40.80;7.13;;;;;;;2.06;52.05;101386.50;5033901;28;20136;-68
2022/01/16 05:07:49;;;;;;;49.88;8.50;;;;;;;1.99;52.56;101377.19;5034117;28;20135;-69
2022/01/16 05:10:16;;;;;;;36.03;6.80;;;;;;;2.10;52.00;101380.09;5034466;28;20041;-69
2022/01/16 05:12:45;;;;;;;36.33;7.80;;;;;;;1.76;52.97;101382.00;5033872;28;20053;-69
2022/01/16 05:17:57;;;;;;;41.85;8.18;;;;;;;2.09;51.71;101373.94;5034072;28;20095;-68
2022/01/16 05:20:23;;;;;;;45.05;7.85;;;;;;;2.12;52.36;101368.47;5034332;28;20068;-69
2022/01/16 05:22:50;;;;;;;40.95;9.18;;;;;;;1.91;52.48;101373.16;5034470;28;20049;-69
2022/01/16 05:25:18;;;;;;;41.15;7.22;;;;;;;1.42;53.57;101367.16;5034309;28;20072;-69
2022/01/16 05:27:44;;;;;;;48.75;8.25;;;;;;;1.71;53.22;101354.94;5034421;28;20041;-69
2022/01/16 05:30:11;;;;;;;41.97;7.22;;;;;;;1.76;53.07;101358.19;5033744;28;20061;-69
2022/01/16 05:32:38;;;;;;;52.05;9.13;;;;;;;1.66;52.85;101351.72;5033565;28;20041;-68
2022/01/16 05:35:07;;;;;;;41.47;8.55;;;;;;;1.37;54.01;101346.28;5033072;28;20041;-69
2022/01/16 05:37:33;;;;;;;44.63;7.72;;;;;;;1.40;54.02;101350.53;5035451;28;20490;-69
2022/01/16 05:40:00;;;;;;;43.17;8.35;;;;;;;1.53;53.88;101335.69;5040425;28;20103;-69
2022/01/16 05:42:26;;;;;;;41.00;8.00;;;;;;;1.14;54.53;101333.47;5040600;28;20041;-68
2022/01/16 05:44:53;;;;;;;42.28;8.82;;;;;;;1.55;53.48;101333.81;5038360;28;20045;-68
2022/01/16 05:47:19;;;;;;;37.03;7.85;;;;;;;1.72;53.31;101333.72;5035908;28;20056;-68
2022/01/16 05:49:46;;;;;;;42.03;9.00;;;;;;;1.46;53.64;101335.16;5033847;28;20056;-69
2022/01/16 05:52:32;;;;;;;38.72;8.40;;;;;;;1.69;53.07;101325.09;5033368;28;20055;-69
2022/01/16 05:54:59;;;;;;;35.97;8.57;;;;;;;1.55;53.60;101325.03;5033752;28;20065;-68
2022/01/16 05:57:26;;;;;;;39.83;9.10;;;;;;;2.48;51.11;101329.28;5033586;28;20125;-68
2022/01/16 05:59:54;;;;;;;41.10;9.15;;;;;;;2.25;51.48;101325.41;5033805;28;20422;-69
2022/01/16 06:02:20;;;;;;;53.45;10.88;;;;;;;2.00;52.07;101326.84;5032801;28;20072;-69
2022/01/16 06:04:47;;;;;;;44.65;10.25;;;;;;;1.95;52.20;101332.38;5033361;28;20581;-69
2022/01/16 06:07:14;;;;;;;42.45;11.95;;;;;;;1.90;52.65;101329.13;5032250;28;20053;-68
2022/01/16 06:09:40;;;;;;;43.83;11.23;;;;;;;2.53;50.87;101319.28;5033493;28;20049;-69
2022/01/16 06:12:07;;;;;;;44.75;10.80;;;;;;;2.36;51.75;101323.78;5032601;28;20069;-68
2022/01/16 06:14:34;;;;;;;45.95;11.60;;;;;;;2.15;52.14;101315.34;5033025;28;20488;-69
2022/01/16 06:17:00;;;;;;;40.00;11.30;;;;;;;2.19;52.13;101319.50;5033925;28;20045;-69
2022/01/16 06:19:27;;;;;;;49.67;12.23;;;;;;;1.77;52.82;101306.97;5033356;28;20046;-69
2022/01/16 06:21:53;;;;;;;40.08;11.88;;;;;;;2.14;52.22;101304.84;5032913;28;20041;-67
2022/01/16 06:24:21;;;;;;;47.20;11.88;;;;;;;1.63;53.75;101305.13;5033270;28;20052;-69
2022/01/16 06:26:49;;;;;;;33.47;12.55;;;;;;;1.99;52.58;101306.59;5015380;28;20124;-69
2022/01/16 06:29:16;;;;;;;40.08;12.43;;;;;;;1.69;53.05;101301.28;5031797;28;20128;-68
2022/01/16 06:31:43;;;;;;;48.42;13.02;;;;;;;1.77;53.13;101300.84;5031738;28;20045;-69
2022/01/16 06:34:10;;;;;;;57.90;13.93;;;;;;;1.92;52.75;101305.22;5032132;28;20492;-69
2022/01/16 06:36:36;;;;;;;45.20;13.02;;;;;;;1.55;53.90;101298.59;5032274;28;20072;-68
2022/01/16 06:39:06;;;;;;;61.30;13.82;;;;;;;2.35;51.55;101302.72;5033252;28;20057;-69
2022/01/16 06:41:33;;;;;;;45.67;14.48;;;;;;;2.24;51.90;101298.06;5032587;28;20049;-68
2022/01/16 06:44:01;;;;;;;46.10;11.70;;;;;;;2.31;51.46;101293.25;5032062;28;20141;-68
2022/01/16 06:46:29;;;;;;;42.75;13.10;;;;;;;2.60;50.88;101302.91;5032611;28;20128;-68
2022/01/16 06:48:56;;;;;;;54.78;13.15;;;;;;;2.63;50.57;101309.81;5032846;28;20126;-68
2022/01/16 06:51:24;;;;;;;56.03;14.32;;;;;;;1.97;51.95;101303.22;5032387;28;20045;-68
2022/01/16 06:53:57;;;;;;;40.08;13.25;;;;;;;1.93;52.15;101305.19;5032541;28;20049;-69
2022/01/16 06:56:24;;;;;;;50.42;13.18;;;;;;;2.24;51.57;101311.31;5032770;28;20049;-69
2022/01/16 06:58:51;;;;;;;56.20;13.75;;;;;;;2.32;51.28;101306.41;5031587;28;20144;-69
2022/01/16 07:01:37;;;;;;;46.00;13.75;;;;;;;2.65;50.59;101316.75;5031938;28;20481;-68
2022/01/16 07:04:04;;;;;;;45.30;14.32;;;;;;;2.69;50.47;101316.56;5031828;28;20045;-68
2022/01/16 07:06:30;;;;;;;43.33;13.63;;;;;;;2.39;51.20;101313.03;5031719;28;20397;-68
2022/01/16 07:08:57;;;;;;;50.85;15.05;;;;;;;2.56;50.80;101311.16;5031371;28;20045;-68
2022/01/16 07:11:23;;;;;;;38.58;13.43;;;;;;;2.50;50.62;101309.72;5031789;28;20107;-68
2022/01/16 07:13:50;;;;;;;41.50;14.20;;;;;;;2.61;50.46;101315.19;5032163;28;20073;-68
2022/01/16 07:16:16;;;;;;;40.45;15.30;;;;;;;1.90;51.86;101317.72;5031765;28;20141;-68
2022/01/16 07:18:43;;;;;;;48.90;15.93;;;;;;;2.32;51.41;101316.13;5031259;28;20433;-68
2022/01/16 07:21:13;;;;;;;53.10;16.73;;;;;;;2.48;51.25;101329.28;5014107;28;20446;-67
2022/01/16 07:23:45;;;;;;;40.10;14.82;;;;;;;2.38;51.83;101335.16;5031010;28;20099;-69
2022/01/16 07:26:18;;;;;;;53.97;16.45;;;;;;;2.83;50.47;101329.78;5031734;28;20132;-69
2022/01/16 07:28:45;;;;;;;51.63;15.63;;;;;;;2.95;50.21;101328.16;5030994;28;20469;-69
2022/01/16 07:31:12;;;;;;;42.00;15.25;;;;;;;2.84;49.98;101335.00;5032286;28;20498;-69
2022/01/16 07:33:39;;;;;;;45.70;14.60;;;;;;;2.93;50.56;101330.06;5031735;28;20061;-68
2022/01/16 07:36:06;;;;;;;47.78;15.75;;;;;;;2.94;49.40;101321.19;5036414;28;20053;-69
2022/01/16 07:38:32;;;;;;;41.42;15.93;;;;;;;2.31;51.43;101331.19;5033744;28;20069;-69
2022/01/16 07:40:58;;;;;;;36.67;14.77;;;;;;;2.93;50.18;101335.34;5032565;28;20468;-69
2022/01/16 07:43:25;;;;;;;47.85;16.42;;;;;;;2.81;50.17;101332.53;5035086;28;20132;-69
2022/01/16 07:45:52;;;;;;;40.17;16.50;;;;;;;2.75;50.49;101338.19;5031346;28;20050;-68
2022/01/16 07:48:18;;;;;;;45.58;16.17;;;;;;;2.50;51.21;101338.00;5030325;28;20045;-70
2022/01/16 07:50:45;;;;;;;39.50;15.90;;;;;;;2.95;50.22;101338.78;5031563;28;20045;-69
2022/01/16 07:53:11;;;;;;;44.15;15.88;;;;;;;2.01;52.81;101330.34;5031711;28;20041;-69
2022/01/16 07:55:38;;;;;;;46.05;17.27;;;;;;;2.40;51.25;101330.59;5031454;28;20129;-69
2022/01/16 07:58:04;;;;;;;44.60;16.55;;;;;;;2.28;51.74;101322.56;5031581;28;20128;-69
2022/01/16 08:00:32;;;;;;;47.22;16.73;;;;;;;2.63;51.58;101333.66;5031800;28;20042;-69
2022/01/16 08:02:59;;;;;;;47.67;19.88;;;;;;;2.46;51.97;101333.84;5031292;28;20045;-69
2022/01/16 08:05:26;;;;;;;49.55;19.67;;;;;;;2.45;51.84;101319.75;5031004;28;20053;-69
2022/01/16 08:07:53;;;;;;;54.05;18.58;;;;;;;1.80;53.56;101317.38;5026160;28;20128;-69
2022/01/16 08:10:19;;;;;;;45.45;19.58;;;;;;;2.11;52.36;101320.91;5001419;28;20132;-68
2022/01/16 08:12:46;;;;;;;44.78;19.35;;;;;;;1.99;53.28;101308.41;5024458;28;20056;-69
2022/01/16 08:15:12;;;;;;;56.33;20.67;;;;;;;2.26;52.76;101308.56;5030054;28;20056;-69
2022/01/16 08:17:39;;;;;;;55.05;20.83;;;;;;;2.82;51.22;101310.41;5031184;28;20072;-69
2022/01/16 08:20:08;;;;;;;59.13;20.45;;;;;;;2.99;50.92;101308.47;5027934;28;20133;-69
2022/01/16 08:22:36;;;;;;;50.08;21.48;;;;;;;2.88;50.84;101309.16;5030079;28;20037;-70
2022/01/16 08:25:04;;;;;;;48.17;20.88;;;;;;;3.14;50.32;101323.41;4991085;28;20124;-69
2022/01/16 08:27:31;;;;;;;57.50;20.85;;;;;;;2.36;52.20;101315.00;5010958;28;20139;-69
2022/01/16 08:30:07;;;;;;;54.67;21.20;;;;;;;2.90;50.13;101308.09;5030276;28;20095;-70
2022/01/16 08:32:33;;;;;;;54.13;21.70;;;;;;;2.75;51.45;101306.41;5013340;28;20464;-69
2022/01/16 08:35:00;;;;;;;53.90;21.92;;;;;;;2.24;53.01;101306.00;5029715;28;20124;-69
2022/01/16 08:37:27;;;;;;;49.78;21.65;;;;;;;2.58;52.04;101302.16;5029992;28;20390;-69
2022/01/16 08:39:53;;;;;;;53.38;21.95;;;;;;;2.28;53.06;101293.44;5030698;28;20482;-70
2022/01/16 08:42:20;;;;;;;57.13;21.48;;;;;;;2.18;53.41;101290.50;5027242;28;20045;-69
2022/01/16 08:44:46;;;;;;;59.17;22.58;;;;;;;2.30;53.40;101292.38;5029382;28;20067;-68
2022/01/16 08:47:13;;;;;;;52.92;22.05;;;;;;;2.57;52.76;101286.34;5015371;28;20534;-69
2022/01/16 08:49:40;;;;;;;51.42;21.70;;;;;;;2.81;51.99;101281.34;5006983;28;20056;-69
2022/01/16 08:52:07;;;;;;;54.97;21.80;;;;;;;2.88;51.79;101280.84;5011218;28;20070;-69
2022/01/16 08:54:34;;;;;;;53.97;23.48;;;;;;;2.08;53.67;101287.53;5012553;28;20103;-69
2022/01/16 08:57:04;;;;;;;52.13;22.00;;;;;;;2.21;53.34;101278.88;5010064;28;20493;-69
2022/01/16 08:59:30;;;;;;;56.65;23.15;;;;;;;1.98;54.02;101280.25;5010940;28;20096;-69
2022/01/16 09:01:57;;;;;;;58.33;23.75;;;;;;;2.56;53.05;101269.63;5016238;28;20342;-70
2022/01/16 09:04:23;;;;;;;57.67;22.40;;;;;;;2.65;52.75;101261.09;5030315;28;20045;-70
2022/01/16 09:06:50;;;;;;;50.03;23.25;;;;;;;3.39;50.93;101262.53;5029729;28;20064;-69
2022/01/16 09:09:17;;;;;;;49.17;21.65;;;;;;;2.78;51.58;101253.22;5030177;28;20129;-69
2022/01/16 09:11:43;;;;;;;49.67;23.48;;;;;;;3.31;51.11;101256.06;5018255;28;20066;-69
2022/01/16 09:14:10;;;;;;;49.88;22.45;;;;;;;3.10;51.45;101264.44;5030181;28;20115;-69
2022/01/16 09:16:36;;;;;;;58.28;26.23;;;;;;;3.49;50.11;101262.78;5030686;28;20132;-69
2022/01/16 09:19:03;;;;;;;55.03;23.80;;;;;;;3.74;50.09;101259.34;5022570;28;20046;-69
2022/01/16 09:21:29;;;;;;;51.90;23.70;;;;;;;3.08;50.92;101270.78;5010501;28;20507;-68
2022/01/16 09:23:56;;;;;;;60.47;24.55;;;;;;;2.27;53.59;101275.84;5016264;28;20045;-70
2022/01/16 09:26:24;;;;;;;52.22;23.95;;;;;;;2.96;51.55;101274.19;5013376;28;20069;-70
2022/01/16 09:28:51;;;;;;;54.05;25.05;;;;;;;3.51;50.50;101275.94;5014041;28;20096;-69
2022/01/16 09:31:17;;;;;;;55.88;25.25;;;;;;;2.93;52.11;101269.97;5014090;28;20054;-70
2022/01/16 09:33:44;;;;;;;49.65;24.00;;;;;;;3.09;51.91;101270.69;5013247;28;20046;-68
2022/01/16 09:36:11;;;;;;;53.85;24.67;;;;;;;2.38;53.60;101270.75;5014440;28;20052;-69
2022/01/16 09:38:39;;;;;;;45.83;24.48;;;;;;;3.25;52.05;101270.56;5014061;28;20138;-69
2022/01/16 09:41:07;;;;;;;50.80;23.88;;;;;;;3.50;50.90;101269.78;5034245;28;20494;-69
2022/01/16 09:43:35;;;;;;;62.22;25.17;;;;;;;3.49;51.33;101267.25;5022384;28;20041;-69
2022/01/16 09:46:02;;;;;;;47.28;24.85;;;;;;;3.07;52.31;101266.44;5005542;28;20050;-69
2022/01/16 09:48:29;;;;;;;52.92;25.95;;;;;;;3.33;51.91;101273.53;5013533;28;20465;-69
2022/01/16 09:50:55;;;;;;;52.60;25.75;;;;;;;3.15;52.04;101275.59;5012958;28;20217;-70
2022/01/16 09:53:22;;;;;;;49.45;23.65;;;;;;;2.79;52.31;101259.38;5032209;28;20077;-70
2022/01/16 09:55:49;;;;;;;59.40;26.15;;;;;;;3.55;50.96;101275.66;5032566;28;20052;-69
2022/01/16 09:58:16;;;;;;;49.63;24.88;;;;;;;4.18;49.82;101267.94;5032398;28;20128;-70
2022/01/16 10:00:43;;;;;;;47.60;24.35;;;;;;;3.79;50.23;101267.00;5032077;28;20069;-71
2022/01/16 10:03:10;;;;;;;45.05;24.55;;;;;;;4.15;49.99;101268.97;5022113;28;20406;-69
2022/01/16 10:05:39;;;;;;;52.20;24.77;;;;;;;3.80;50.69;101269.56;5033815;28;20474;-70
2022/01/16 10:08:08;;;;;;;49.80;25.10;;;;;;;3.76;50.43;101273.38;5033752;28;20124;-70
2022/01/16 10:10:40;;;;;;;46.72;25.00;;;;;;;4.06;49.82;101270.44;5032732;28;20460;-70
2022/01/16 10:13:33;;;;;;;49.03;26.02;;;;;;;4.31;49.65;101274.06;5025701;28;20068;-69
2022/01/16 10:15:59;;;;;;;47.15;24.40;;;;;;;4.47;49.38;101285.38;5016978;28;22346;-69
2022/01/16 10:18:38;;;;;;;49.67;23.90;;;;;;;4.52;49.34;101285.03;5033979;28;20056;-69
2022/01/16 10:21:06;;;;;;;45.42;24.10;;;;;;;4.61;49.36;101286.22;5024792;28;20050;-69
2022/01/16 10:23:43;;;;;;;46.97;23.33;;;;;;;4.03;50.69;101283.91;5020623;28;20128;-70
2022/01/16 10:26:20;;;;;;;44.85;22.20;;;;;;;4.63;49.30;101285.16;5024772;28;20125;-69
2022/01/16 10:28:48;;;;;;;49.25;26.02;;;;;;;4.59;49.98;101289.00;5015130;28;20049;-69
2022/01/16 10:31:20;;;;;;;48.63;23.65;;;;;;;4.66;49.35;101279.63;5022534;28;20049;-69
2022/01/16 10:33:46;;;;;;;42.65;23.05;;;;;;;4.97;48.41;101278.28;5023501;28;20108;-69
2022/01/16 10:36:29;;;;;;;56.17;23.77;;;;;;;4.43;50.39;101285.69;5012814;28;20065;-70
2022/01/16 10:39:11;;;;;;;44.10;23.10;;;;;;;4.58;50.00;101295.25;5028455;28;20120;-69
2022/01/16 10:41:38;;;;;;;42.28;22.95;;;;;;;3.83;51.45;101310.97;5032983;28;20545;-70
2022/01/16 10:44:25;;;;;;;42.75;21.80;;;;;;;3.77;52.31;101306.91;5024888;28;20077;-69
2022/01/16 10:46:51;;;;;;;39.42;21.13;;;;;;;3.67;51.89;101300.53;5029112;28;20129;-70
2022/01/16 10:49:19;;;;;;;42.38;22.23;;;;;;;3.90;52.26;101300.78;5012891;28;20463;-70
2022/01/16 10:52:05;;;;;;;40.50;22.60;;;;;;;3.83;52.68;101295.91;5028452;28;20045;-73
2022/01/16 10:54:34;;;;;;;42.33;23.48;;;;;;;3.97;52.27;101286.16;5019812;28;20490;-71
2022/01/16 10:57:20;;;;;;;49.17;23.77;;;;;;;4.36;51.69;101279.94;5023992;28;20105;-71
2022/01/16 10:59:47;;;;;;;43.38;23.50;;;;;;;4.15;52.66;101274.28;5030889;28;20066;-72
2022/01/16 11:02:14;;;;;;;43.13;23.38;;;;;;;4.36;52.00;101273.75;5028244;28;20481;-72
2022/01/16 11:04:41;;;;;;;46.20;23.52;;;;;;;4.70;50.83;101251.88;5023945;28;20490;-71
2022/01/16 11:07:07;;;;;;;46.95;22.80;;;;;;;3.85;53.08;101264.78;5016349;28;20073;-70
2022/01/16 11:09:34;;;;;;;50.72;24.50;;;;;;;4.53;51.70;101265.50;5031804;28;20482;-71
2022/01/16 11:12:00;;;;;;;52.55;24.80;;;;;;;4.71;51.36;101256.22;5022250;28;20451;-70
2022/01/16 11:14:30;;;;;;;55.47;25.25;;;;;;;4.68;51.29;101267.06;5011635;28;20190;-70
2022/01/16 11:16:58;;;;;;;54.85;24.80;;;;;;;4.23;52.83;101271.09;5010566;28;20156;-70
2022/01/16 11:19:26;;;;;;;50.70;24.48;;;;;;;4.93;51.02;101260.00;5011434;28;20049;-72
2022/01/16 11:21:57;;;;;;;46.88;24.75;;;;;;;5.07;50.33;101278.47;5031901;28;20406;-70
2022/01/16 11:24:36;;;;;;;45.20;25.02;;;;;;;5.12;50.36;101272.81;5031027;28;20079;-70
2022/01/16 11:27:02;;;;;;;46.90;23.20;;;;;;;4.55;51.55;101277.69;5031355;28;20120;-72
2022/01/16 11:29:29;;;;;;;45.33;23.65;;;;;;;4.66;51.81;101278.75;5030231;28;20053;-72
2022/01/16 11:31:57;;;;;;;48.72;24.08;;;;;;;4.49;52.54;101272.00;5030670;28;20045;-71
2022/01/16 11:34:23;;;;;;;44.38;24.23;;;;;;;4.55;52.23;101267.06;5031214;28;20131;-71
2022/01/16 11:36:52;;;;;;;43.17;22.90;;;;;;;4.88;51.24;101273.63;5029362;28;20129;-72
2022/01/16 11:39:19;;;;;;;42.60;22.80;;;;;;;4.74;51.32;101274.63;5011007;28;20132;-73
2022/01/16 11:41:52;;;;;;;40.00;23.85;;;;;;;4.98;51.37;101274.66;5012404;28;20073;-72
2022/01/16 11:44:29;;;;;;;43.08;22.92;;;;;;;4.78;51.87;101277.91;5011193;28;20125;-72
2022/01/16 11:46:58;;;;;;;42.30;24.63;;;;;;;4.89;51.77;101277.13;5010746;28;20050;-73
2022/01/16 11:49:36;;;;;;;45.20;24.48;;;;;;;4.98;51.60;101279.16;5012336;28;20050;-71
2022/01/16 11:52:11;;;;;;;48.72;24.23;;;;;;;5.03;51.75;101274.31;5011710;28;20056;-73
2022/01/16 11:55:06;;;;;;;41.72;23.65;;;;;;;4.09;54.43;101272.03;5008539;28;20072;-70
2022/01/16 11:57:33;;;;;;;44.42;24.27;;;;;;;4.74;53.10;101269.28;5011983;28;20447;-72
2022/01/16 12:00:15;;;;;;;43.83;23.33;;;;;;;4.38;53.22;101267.41;5011330;28;20128;-73
2022/01/16 12:02:48;;;;;;;46.22;24.55;;;;;;;4.61;52.74;101264.97;5012564;28;20397;-72
2022/01/16 12:05:27;;;;;;;44.58;24.27;;;;;;;4.74;52.90;101271.09;5011765;28;20065;-72
2022/01/16 12:07:58;;;;;;;49.70;25.75;;;;;;;5.05;52.31;101261.78;5011879;28;20041;-71
2022/01/16 12:10:46;;;;;;;51.22;25.20;;;;;;;4.66;53.49;101258.38;5011548;28;20069;-71